Time;durP1;ratioP1;P1;durP2;ratioP2;P2;SDS_P1;SDS_P2;PMS_P1;PMS_P2;Temp;Humidity;BMP_temperature;BMP_pressure;BME280_temperature;BME280_humidity;BME280_pressure;Samples;Min_cycle;Max_cycle;Signal;HPM_P1;HPM_P2
2023/03/18 00:00:26;;;;;;;0.10;0.10;;;;;;;;;;4985159;28;20062;-77
2023/03/18 00:03:12;;;;;;;0.10;0.10;;;;;;;;;;4982372;28;20038;-79
2023/03/18 00:06:18;;;;;;;0.10;0.10;;;;;;;;;;4985228;28;20030;-78
2023/03/18 00:09:04;;;;;;;0.20;0.20;;;;;;;;;;4984802;28;20040;-78
2023/03/18 00:11:50;;;;;;;0.10;0.10;;;;;;;;;;4984268;28;20114;-78
2023/03/18 00:14:36;;;;;;;0.10;0.10;;;;;;;;;;4981574;28;20030;-78
2023/03/18 00:17:22;;;;;;;0.10;0.10;;;;;;;;;;4986547;28;20037;-78
2023/03/18 00:20:09;;;;;;;0.10;0.10;;;;;;;;;;4983970;28;20068;-78
2023/03/18 00:22:56;;;;;;;0.10;0.10;;;;;;;;;;4982697;28;20096;-77
2023/03/18 00:25:42;;;;;;;0.10;0.10;;;;;;;;;;4980262;28;20030;-78
2023/03/18 00:28:30;;;;;;;0.10;0.10;;;;;;;;;;4984036;28;20073;-78
2023/03/18 00:31:16;;;;;;;0.10;0.10;;;;;;;;;;4985814;28;20445;-77
2023/03/18 00:34:02;;;;;;;0.10;0.10;;;;;;;;;;4984438;28;20363;-79
2023/03/18 00:36:49;;;;;;;0.10;0.10;;;;;;;;;;4988729;28;20041;-79
2023/03/18 00:39:36;;;;;;;0.10;0.10;;;;;;;;;;4984095;28;20037;-77
2023/03/18 00:42:22;;;;;;;0.10;0.10;;;;;;;;;;4985797;28;20038;-78
2023/03/18 00:45:09;;;;;;;0.10;0.10;;;;;;;;;;4984692;28;20425;-78
2023/03/18 00:47:55;;;;;;;0.10;0.10;;;;;;;;;;4983681;28;20056;-79
2023/03/18 00:50:41;;;;;;;0.17;0.17;;;;;;;;;;4984088;28;20284;-77
2023/03/18 00:53:27;;;;;;;0.10;0.10;;;;;;;;;;4985095;28;20557;-78
2023/03/18 00:56:14;;;;;;;0.10;0.10;;;;;;;;;;4984120;28;20414;-77
2023/03/18 00:59:00;;;;;;;0.10;0.10;;;;;;;;;;4990899;28;20519;-79
2023/03/18 01:01:45;;;;;;;0.10;0.10;;;;;;;;;;4988463;28;20127;-78
2023/03/18 01:04:31;;;;;;;0.10;0.10;;;;;;;;;;4983417;28;20049;-78
2023/03/18 01:07:17;;;;;;;0.10;0.10;;;;;;;;;;4981054;28;20034;-78
2023/03/18 01:10:04;;;;;;;0.10;0.10;;;;;;;;;;4981835;28;20077;-78
2023/03/18 01:12:50;;;;;;;0.10;0.10;;;;;;;;;;4983534;28;20040;-78
2023/03/18 01:15:35;;;;;;;0.10;0.10;;;;;;;;;;4985976;28;20512;-79
2023/03/18 01:18:22;;;;;;;0.13;0.13;;;;;;;;;;4988661;28;20096;-79
2023/03/18 01:21:09;;;;;;;0.10;0.10;;;;;;;;;;4984907;28;20414;-77
2023/03/18 01:24:00;;;;;;;0.10;0.10;;;;;;;;;;4987420;28;20073;-79
2023/03/18 01:26:47;;;;;;;0.10;0.10;;;;;;;;;;4985957;28;20031;-77
2023/03/18 01:29:34;;;;;;;0.10;0.10;;;;;;;;;;4997888;28;20399;-77
2023/03/18 01:32:21;;;;;;;0.13;0.13;;;;;;;;;;4983352;28;20137;-78
2023/03/18 01:35:08;;;;;;;0.20;0.20;;;;;;;;;;4982553;28;20523;-77
2023/03/18 01:37:54;;;;;;;0.10;0.10;;;;;;;;;;4988109;28;20640;-77
2023/03/18 01:40:40;;;;;;;0.10;0.10;;;;;;;;;;4985693;28;20038;-78
2023/03/18 01:43:32;;;;;;;0.10;0.10;;;;;;;;;;4983310;28;20050;-77
2023/03/18 01:46:29;;;;;;;0.10;0.10;;;;;;;;;;4984597;28;20176;-77
2023/03/18 01:49:19;;;;;;;0.10;0.10;;;;;;;;;;4985434;28;20046;-77
2023/03/18 01:52:11;;;;;;;0.10;0.10;;;;;;;;;;4972701;28;20139;-77
2023/03/18 01:54:59;;;;;;;0.20;0.20;;;;;;;;;;4983551;28;20033;-76
2023/03/18 01:57:45;;;;;;;0.20;0.20;;;;;;;;;;4989043;28;20084;-77
2023/03/18 02:00:35;;;;;;;0.10;0.10;;;;;;;;;;4984623;28;20319;-77
2023/03/18 02:03:21;;;;;;;0.10;0.10;;;;;;;;;;4983966;28;20065;-78
2023/03/18 02:06:07;;;;;;;0.10;0.10;;;;;;;;;;4991839;28;21540;-78
2023/03/18 02:08:54;;;;;;;0.10;0.10;;;;;;;;;;4988772;28;20400;-77
2023/03/18 02:11:41;;;;;;;0.10;0.10;;;;;;;;;;4981763;28;20046;-78
2023/03/18 02:14:27;;;;;;;0.20;0.20;;;;;;;;;;4983533;28;20417;-78
2023/03/18 02:17:15;;;;;;;0.20;0.20;;;;;;;;;;4984938;28;20129;-77
2023/03/18 02:20:30;;;;;;;0.17;0.17;;;;;;;;;;4982692;28;20229;-77
2023/03/18 02:23:24;;;;;;;0.10;0.10;;;;;;;;;;4975419;28;20487;-78
2023/03/18 02:26:16;;;;;;;0.10;0.10;;;;;;;;;;4984627;28;20030;-77
2023/03/18 02:29:03;;;;;;;0.10;0.10;;;;;;;;;;4981483;28;20052;-77
2023/03/18 02:31:59;;;;;;;0.10;0.10;;;;;;;;;;4982240;28;20045;-77
2023/03/18 02:34:45;;;;;;;0.10;0.10;;;;;;;;;;4985164;28;20103;-78
2023/03/18 02:37:31;;;;;;;0.10;0.10;;;;;;;;;;4990469;28;20588;-76
2023/03/18 02:40:20;;;;;;;0.10;0.10;;;;;;;;;;4989138;28;20044;-77
2023/03/18 02:43:17;;;;;;;0.10;0.10;;;;;;;;;;4988112;28;20104;-78
2023/03/18 02:46:22;;;;;;;0.10;0.10;;;;;;;;;;4981837;28;20042;-77
2023/03/18 02:49:08;;;;;;;0.10;0.10;;;;;;;;;;4983896;28;20511;-78
2023/03/18 02:51:55;;;;;;;0.20;0.20;;;;;;;;;;4978970;28;20701;-78
2023/03/18 02:54:41;;;;;;;0.10;0.10;;;;;;;;;;4985730;28;20657;-78
2023/03/18 02:57:27;;;;;;;0.10;0.10;;;;;;;;;;4989996;28;20518;-79
2023/03/18 03:00:15;;;;;;;0.10;0.10;;;;;;;;;;4982249;28;20695;-78
2023/03/18 03:03:01;;;;;;;0.17;0.17;;;;;;;;;;4990728;28;20069;-79
2023/03/18 03:05:47;;;;;;;0.20;0.20;;;;;;;;;;4983705;28;20049;-79
2023/03/18 03:08:33;;;;;;;0.20;0.20;;;;;;;;;;4991172;28;20549;-78
2023/03/18 03:11:19;;;;;;;0.50;0.30;;;;;;;;;;4997499;28;20038;-79
2023/03/18 03:14:07;;;;;;;0.90;0.50;;;;;;;;;;4990050;28;20102;-79
2023/03/18 03:16:53;;;;;;;0.38;0.30;;;;;;;;;;4994119;28;20569;-79
2023/03/18 03:19:39;;;;;;;0.25;0.20;;;;;;;;;;4985831;28;20117;-78
2023/03/18 03:22:26;;;;;;;0.40;0.30;;;;;;;;;;4982997;28;20038;-78
2023/03/18 03:25:12;;;;;;;0.20;0.20;;;;;;;;;;4981288;28;20438;-78
2023/03/18 03:27:59;;;;;;;0.10;0.10;;;;;;;;;;4979845;28;20050;-78
2023/03/18 03:30:44;;;;;;;0.13;0.13;;;;;;;;;;4987284;28;20133;-78
2023/03/18 03:33:30;;;;;;;0.20;0.20;;;;;;;;;;4983983;28;20113;-78
2023/03/18 03:36:16;;;;;;;0.17;0.17;;;;;;;;;;4982244;28;20034;-79
2023/03/18 03:39:03;;;;;;;0.10;0.10;;;;;;;;;;4980952;28;20369;-78
2023/03/18 03:41:48;;;;;;;0.17;0.17;;;;;;;;;;4983741;28;20045;-79
2023/03/18 03:44:35;;;;;;;0.20;0.20;;;;;;;;;;4986690;28;20053;-78
2023/03/18 03:47:21;;;;;;;0.10;0.10;;;;;;;;;;4982464;28;20375;-79
2023/03/18 03:50:07;;;;;;;0.13;0.13;;;;;;;;;;4981778;28;20049;-78
2023/03/18 03:52:53;;;;;;;0.20;0.20;;;;;;;;;;4981320;28;20153;-78
2023/03/18 03:55:42;;;;;;;0.10;0.10;;;;;;;;;;4984890;28;20147;-78
2023/03/18 03:58:28;;;;;;;0.10;0.10;;;;;;;;;;4982978;28;20391;-79
2023/03/18 04:01:14;;;;;;;0.10;0.10;;;;;;;;;;4981261;28;20061;-78
2023/03/18 04:04:02;;;;;;;0.13;0.13;;;;;;;;;;4979963;28;20037;-79
2023/03/18 04:06:49;;;;;;;0.10;0.10;;;;;;;;;;4982091;28;20026;-78
2023/03/18 04:09:35;;;;;;;0.20;0.20;;;;;;;;;;4983789;28;20097;-78
2023/03/18 04:12:22;;;;;;;0.10;0.10;;;;;;;;;;4989660;28;20041;-78
2023/03/18 04:15:16;;;;;;;0.10;0.10;;;;;;;;;;4987556;28;20053;-78
2023/03/18 04:18:05;;;;;;;0.13;0.13;;;;;;;;;;4973737;28;20042;-78
2023/03/18 04:20:51;;;;;;;0.20;0.20;;;;;;;;;;4981934;28;20059;-78
2023/03/18 04:23:47;;;;;;;0.17;0.17;;;;;;;;;;4989560;28;20451;-78
2023/03/18 04:26:35;;;;;;;0.10;0.10;;;;;;;;;;4986755;28;20556;-78
2023/03/18 04:29:24;;;;;;;0.10;0.10;;;;;;;;;;4988684;28;20048;-78
2023/03/18 04:32:10;;;;;;;0.13;0.13;;;;;;;;;;4974614;28;20049;-78
2023/03/18 04:34:58;;;;;;;0.10;0.10;;;;;;;;;;4983347;28;20034;-78
2023/03/18 04:37:44;;;;;;;0.10;0.10;;;;;;;;;;4981994;28;20045;-78
2023/03/18 04:40:31;;;;;;;0.20;0.20;;;;;;;;;;4966538;28;20030;-78
2023/03/18 04:43:17;;;;;;;0.70;0.40;;;;;;;;;;4983809;28;20042;-78
2023/03/18 04:46:05;;;;;;;0.40;0.30;;;;;;;;;;4984196;28;20502;-78
2023/03/18 04:48:52;;;;;;;0.35;0.20;;;;;;;;;;4979253;28;20065;-78
2023/03/18 04:51:38;;;;;;;0.30;0.30;;;;;;;;;;4979838;28;20037;-78
2023/03/18 04:54:28;;;;;;;0.28;0.20;;;;;;;;;;4982196;28;20092;-78
2023/03/18 04:57:17;;;;;;;0.13;0.13;;;;;;;;;;4981777;28;20068;-78
2023/03/18 05:00:10;;;;;;;0.95;0.50;;;;;;;;;;4982008;28;20100;-78
2023/03/18 05:02:57;;;;;;;0.85;0.40;;;;;;;;;;4983221;28;20029;-78
2023/03/18 05:05:45;;;;;;;0.60;0.40;;;;;;;;;;4984650;28;20039;-78
2023/03/18 05:08:36;;;;;;;0.50;0.30;;;;;;;;;;4984465;28;20064;-78
2023/03/18 05:11:22;;;;;;;0.55;0.30;;;;;;;;;;4986022;28;20030;-78
2023/03/18 05:14:08;;;;;;;0.45;0.25;;;;;;;;;;4985391;28;20442;-78
2023/03/18 05:17:01;;;;;;;0.35;0.30;;;;;;;;;;4979045;28;20337;-78
2023/03/18 05:19:48;;;;;;;0.90;0.50;;;;;;;;;;4985251;28;20628;-78
2023/03/18 05:22:39;;;;;;;1.20;0.60;;;;;;;;;;4985751;28;20031;-78
2023/03/18 05:25:33;;;;;;;0.52;0.30;;;;;;;;;;4980432;28;20143;-78
2023/03/18 05:28:20;;;;;;;0.28;0.20;;;;;;;;;;4985989;28;20034;-78
2023/03/18 05:31:44;;;;;;;0.20;0.20;;;;;;;;;;4977470;28;20042;-78
2023/03/18 05:34:30;;;;;;;0.32;0.28;;;;;;;;;;4988479;28;20510;-78
2023/03/18 05:37:16;;;;;;;0.63;0.40;;;;;;;;;;4984203;28;20065;-77
2023/03/18 05:40:16;;;;;;;0.75;0.40;;;;;;;;;;4990936;28;20041;-77
2023/03/18 05:43:14;;;;;;;0.65;0.30;;;;;;;;;;4983168;28;20038;-78
2023/03/18 05:46:07;;;;;;;0.20;0.20;;;;;;;;;;4981741;28;20065;-78
2023/03/18 05:49:15;;;;;;;0.20;0.20;;;;;;;;;;4995169;28;20055;-78
2023/03/18 05:52:16;;;;;;;0.20;0.20;;;;;;;;;;4984024;28;20034;-77
2023/03/18 05:55:05;;;;;;;0.10;0.10;;;;;;;;;;4982553;28;20148;-79
2023/03/18 05:57:56;;;;;;;0.10;0.10;;;;;;;;;;4990359;28;20031;-78
2023/03/18 06:00:42;;;;;;;0.10;0.10;;;;;;;;;;4986107;28;20129;-78
2023/03/18 06:03:29;;;;;;;0.20;0.20;;;;;;;;;;4981305;28;20077;-79
2023/03/18 06:06:15;;;;;;;0.10;0.10;;;;;;;;;;4982840;28;20039;-78
2023/03/18 06:09:01;;;;;;;0.10;0.10;;;;;;;;;;4991884;28;20402;-77
2023/03/18 06:11:47;;;;;;;0.20;0.20;;;;;;;;;;4988950;28;20503;-77
2023/03/18 06:14:34;;;;;;;0.20;0.20;;;;;;;;;;4993380;28;20585;-78
2023/03/18 06:17:22;;;;;;;0.10;0.10;;;;;;;;;;4973993;28;20034;-76
2023/03/18 06:20:10;;;;;;;0.10;0.10;;;;;;;;;;4992388;28;20038;-77
2023/03/18 06:22:56;;;;;;;0.20;0.20;;;;;;;;;;4989543;28;20033;-75
2023/03/18 06:25:45;;;;;;;0.20;0.20;;;;;;;;;;4988103;28;20029;-76
2023/03/18 06:28:33;;;;;;;0.13;0.13;;;;;;;;;;4993346;28;20069;-77
2023/03/18 06:31:24;;;;;;;0.10;0.10;;;;;;;;;;4984655;28;20125;-76
2023/03/18 06:34:13;;;;;;;0.10;0.10;;;;;;;;;;4990177;28;20057;-76
2023/03/18 06:37:00;;;;;;;0.10;0.10;;;;;;;;;;4985645;28;20488;-75
2023/03/18 06:39:46;;;;;;;0.10;0.10;;;;;;;;;;4987716;28;20912;-77
2023/03/18 06:42:33;;;;;;;0.15;0.15;;;;;;;;;;4993222;28;20033;-76
2023/03/18 06:45:28;;;;;;;0.10;0.10;;;;;;;;;;4989748;28;21384;-76
2023/03/18 06:48:18;;;;;;;0.20;0.20;;;;;;;;;;4985883;28;20537;-75
2023/03/18 06:51:06;;;;;;;0.20;0.20;;;;;;;;;;4989146;28;20038;-75
2023/03/18 06:53:57;;;;;;;0.10;0.10;;;;;;;;;;4987839;28;20022;-76
2023/03/18 06:56:45;;;;;;;0.13;0.13;;;;;;;;;;4987473;28;20902;-75
2023/03/18 06:59:36;;;;;;;0.20;0.20;;;;;;;;;;4985976;28;20183;-75
2023/03/18 07:02:23;;;;;;;0.10;0.10;;;;;;;;;;4983597;28;20054;-76
2023/03/18 07:05:11;;;;;;;0.20;0.20;;;;;;;;;;4986645;28;20037;-76
2023/03/18 07:07:58;;;;;;;0.10;0.10;;;;;;;;;;4988983;28;20037;-75
2023/03/18 07:10:44;;;;;;;0.13;0.13;;;;;;;;;;4988574;28;20034;-76
2023/03/18 07:13:33;;;;;;;0.20;0.20;;;;;;;;;;4993634;28;20089;-76
2023/03/18 07:16:19;;;;;;;0.20;0.20;;;;;;;;;;4985318;28;20441;-76
2023/03/18 07:19:06;;;;;;;0.20;0.20;;;;;;;;;;4989350;28;20085;-76
2023/03/18 07:21:52;;;;;;;0.20;0.20;;;;;;;;;;4986743;28;20117;-76
2023/03/18 07:24:37;;;;;;;0.20;0.20;;;;;;;;;;4988002;28;20390;-76
2023/03/18 07:27:23;;;;;;;0.10;0.10;;;;;;;;;;4988248;28;20096;-76
2023/03/18 07:30:09;;;;;;;0.10;0.10;;;;;;;;;;4982855;28;20092;-76
2023/03/18 07:32:55;;;;;;;0.10;0.10;;;;;;;;;;4986437;28;20451;-75
2023/03/18 07:35:41;;;;;;;0.10;0.10;;;;;;;;;;4984086;28;20035;-76
2023/03/18 07:38:27;;;;;;;0.10;0.10;;;;;;;;;;4995159;28;20035;-75
2023/03/18 07:41:13;;;;;;;0.10;0.10;;;;;;;;;;4987996;28;20046;-76
2023/03/18 07:43:59;;;;;;;0.20;0.20;;;;;;;;;;4983896;28;20479;-76
2023/03/18 07:46:44;;;;;;;0.10;0.10;;;;;;;;;;4993129;28;20352;-76
2023/03/18 07:49:33;;;;;;;0.20;0.20;;;;;;;;;;4986254;28;20081;-76
2023/03/18 07:52:19;;;;;;;0.10;0.10;;;;;;;;;;4984930;28;20466;-76
2023/03/18 07:55:04;;;;;;;0.10;0.10;;;;;;;;;;4986252;28;20104;-76
2023/03/18 07:57:50;;;;;;;0.10;0.10;;;;;;;;;;4986362;28;20127;-75
2023/03/18 08:00:36;;;;;;;0.10;0.10;;;;;;;;;;4983455;28;20061;-75
2023/03/18 08:03:22;;;;;;;0.20;0.20;;;;;;;;;;4983495;28;20037;-76
2023/03/18 08:06:08;;;;;;;0.10;0.10;;;;;;;;;;4985337;28;20523;-76
2023/03/18 08:08:54;;;;;;;0.10;0.10;;;;;;;;;;4984435;28;20136;-76
2023/03/18 08:11:40;;;;;;;0.20;0.20;;;;;;;;;;4988069;28;20037;-76
2023/03/18 08:14:26;;;;;;;0.10;0.10;;;;;;;;;;4984918;28;20034;-76
2023/03/18 08:17:12;;;;;;;0.10;0.10;;;;;;;;;;4983862;28;20200;-75
2023/03/18 08:19:57;;;;;;;0.10;0.10;;;;;;;;;;4983892;28;20473;-76
2023/03/18 08:22:44;;;;;;;0.10;0.10;;;;;;;;;;4983558;28;20100;-75
2023/03/18 08:25:31;;;;;;;0.17;0.17;;;;;;;;;;4984199;28;20149;-76
2023/03/18 08:28:17;;;;;;;0.10;0.10;;;;;;;;;;4986604;28;20050;-76
2023/03/18 08:31:04;;;;;;;0.20;0.20;;;;;;;;;;4984265;28;20046;-76
2023/03/18 08:33:52;;;;;;;0.10;0.10;;;;;;;;;;4983274;28;20049;-76
2023/03/18 08:36:39;;;;;;;0.20;0.20;;;;;;;;;;4983345;28;20072;-76
2023/03/18 08:39:25;;;;;;;0.10;0.10;;;;;;;;;;4986039;28;20057;-76
2023/03/18 08:42:11;;;;;;;0.20;0.20;;;;;;;;;;4984092;28;20104;-76
2023/03/18 08:44:57;;;;;;;0.13;0.13;;;;;;;;;;4984562;28;20041;-76
2023/03/18 08:47:43;;;;;;;0.10;0.10;;;;;;;;;;4985577;28;20099;-76
2023/03/18 08:50:29;;;;;;;0.10;0.10;;;;;;;;;;4987613;28;20030;-76
2023/03/18 08:53:15;;;;;;;0.10;0.10;;;;;;;;;;4987736;28;20619;-76
2023/03/18 08:56:01;;;;;;;0.10;0.10;;;;;;;;;;4983513;28;20037;-76
2023/03/18 08:58:47;;;;;;;0.10;0.10;;;;;;;;;;4985963;28;20060;-76
2023/03/18 09:01:33;;;;;;;0.20;0.20;;;;;;;;;;4982956;28;20141;-75
2023/03/18 09:04:19;;;;;;;0.10;0.10;;;;;;;;;;4987487;28;20034;-76
2023/03/18 09:07:04;;;;;;;0.20;0.20;;;;;;;;;;4981872;28;20149;-76
2023/03/18 09:09:50;;;;;;;0.10;0.10;;;;;;;;;;4989695;28;20386;-77
2023/03/18 09:12:36;;;;;;;0.10;0.10;;;;;;;;;;4985501;28;20101;-77
2023/03/18 09:15:22;;;;;;;0.10;0.10;;;;;;;;;;4985443;28;20109;-77
2023/03/18 09:18:08;;;;;;;0.20;0.20;;;;;;;;;;4983277;28;20049;-77
2023/03/18 09:20:56;;;;;;;0.10;0.10;;;;;;;;;;4983331;28;20132;-78
2023/03/18 09:23:42;;;;;;;0.17;0.17;;;;;;;;;;4989456;28;20038;-78
2023/03/18 09:26:27;;;;;;;0.20;0.20;;;;;;;;;;4986427;28;20447;-77
2023/03/18 09:29:13;;;;;;;0.20;0.20;;;;;;;;;;4985440;28;20208;-77
2023/03/18 09:31:59;;;;;;;0.20;0.20;;;;;;;;;;4984436;28;20046;-77
2023/03/18 09:34:45;;;;;;;0.10;0.10;;;;;;;;;;4982616;28;20073;-75
2023/03/18 09:37:31;;;;;;;0.10;0.10;;;;;;;;;;4981606;28;20625;-75
2023/03/18 09:40:38;;;;;;;0.10;0.10;;;;;;;;;;4983774;28;20037;-75
2023/03/18 09:43:32;;;;;;;0.20;0.20;;;;;;;;;;4984741;28;20087;-75
2023/03/18 09:46:36;;;;;;;0.20;0.20;;;;;;;;;;4987776;28;20509;-75
2023/03/18 09:49:29;;;;;;;0.10;0.10;;;;;;;;;;4986129;28;20045;-76
2023/03/18 09:52:17;;;;;;;0.10;0.10;;;;;;;;;;4990101;28;20034;-76
2023/03/18 09:55:03;;;;;;;0.10;0.10;;;;;;;;;;4988964;28;20061;-76
2023/03/18 09:57:52;;;;;;;0.10;0.10;;;;;;;;;;4986542;28;20259;-76
2023/03/18 10:00:37;;;;;;;0.10;0.10;;;;;;;;;;4985932;28;20167;-76
2023/03/18 10:03:23;;;;;;;0.20;0.20;;;;;;;;;;4986777;28;20030;-76
2023/03/18 10:06:12;;;;;;;0.10;0.10;;;;;;;;;;4987019;28;20026;-76
2023/03/18 10:09:05;;;;;;;0.10;0.10;;;;;;;;;;4987514;28;20053;-76
2023/03/18 10:11:52;;;;;;;0.10;0.10;;;;;;;;;;4988863;28;20503;-76
2023/03/18 10:14:46;;;;;;;0.20;0.20;;;;;;;;;;4988494;28;20066;-76
2023/03/18 10:17:44;;;;;;;0.10;0.10;;;;;;;;;;4976330;28;20038;-76
2023/03/18 10:20:48;;;;;;;0.20;0.20;;;;;;;;;;4991537;28;20119;-76
2023/03/18 10:23:53;;;;;;;0.20;0.20;;;;;;;;;;4988142;28;20034;-76
2023/03/18 10:26:51;;;;;;;0.10;0.10;;;;;;;;;;4989084;28;20578;-76
2023/03/18 10:29:42;;;;;;;0.20;0.20;;;;;;;;;;4988698;28;20137;-76
2023/03/18 10:32:39;;;;;;;0.20;0.20;;;;;;;;;;4986845;28;20046;-76
2023/03/18 10:35:29;;;;;;;0.20;0.20;;;;;;;;;;4986741;28;20030;-76
2023/03/18 10:38:15;;;;;;;0.20;0.20;;;;;;;;;;4988998;28;20042;-76
2023/03/18 10:41:07;;;;;;;0.20;0.20;;;;;;;;;;4987126;28;20077;-76
2023/03/18 10:43:52;;;;;;;;;;;;;;;;;;4986473;28;20136;-76
2023/03/18 10:46:39;;;;;;;0.20;0.20;;;;;;;;;;4985595;28;20052;-76
2023/03/18 10:49:28;;;;;;;0.10;0.10;;;;;;;;;;4987423;28;20081;-76
2023/03/18 10:52:20;;;;;;;0.10;0.10;;;;;;;;;;4985723;28;20038;-76
2023/03/18 10:55:16;;;;;;;0.10;0.10;;;;;;;;;;4986219;28;20116;-77
2023/03/18 10:58:15;;;;;;;0.17;0.17;;;;;;;;;;4987005;28;20034;-77
2023/03/18 11:01:01;;;;;;;0.20;0.20;;;;;;;;;;4979063;28;20049;-78
2023/03/18 11:03:57;;;;;;;0.20;0.20;;;;;;;;;;4985496;28;20030;-76
2023/03/18 11:07:04;;;;;;;0.20;0.20;;;;;;;;;;4988079;28;20033;-77
2023/03/18 11:09:49;;;;;;;0.20;0.20;;;;;;;;;;4991068;28;20132;-78
2023/03/18 11:12:35;;;;;;;0.10;0.10;;;;;;;;;;4987791;28;20325;-75
2023/03/18 11:15:22;;;;;;;0.10;0.10;;;;;;;;;;4986675;28;20513;-74
2023/03/18 11:18:14;;;;;;;0.10;0.10;;;;;;;;;;4986406;28;20038;-75
2023/03/18 11:21:03;;;;;;;0.10;0.10;;;;;;;;;;4989095;28;20076;-74
2023/03/18 11:24:09;;;;;;;0.10;0.10;;;;;;;;;;4985464;28;20133;-75
2023/03/18 11:26:55;;;;;;;0.10;0.10;;;;;;;;;;4986959;28;20072;-74
2023/03/18 11:30:01;;;;;;;0.10;0.10;;;;;;;;;;4990546;28;20030;-75
2023/03/18 11:33:01;;;;;;;0.10;0.10;;;;;;;;;;4986638;28;20034;-74
2023/03/18 11:35:57;;;;;;;0.10;0.10;;;;;;;;;;4986599;28;20486;-74
2023/03/18 11:38:43;;;;;;;0.10;0.10;;;;;;;;;;4990655;28;20034;-77
2023/03/18 11:41:29;;;;;;;0.20;0.20;;;;;;;;;;4984191;28;20049;-78
2023/03/18 11:44:16;;;;;;;0.20;0.20;;;;;;;;;;4984604;28;20549;-76
2023/03/18 11:47:07;;;;;;;0.17;0.17;;;;;;;;;;4987936;28;20989;-76
2023/03/18 11:49:53;;;;;;;0.10;0.10;;;;;;;;;;4990171;28;20108;-78
2023/03/18 11:52:45;;;;;;;0.10;0.10;;;;;;;;;;4987491;28;20045;-77
2023/03/18 11:55:49;;;;;;;0.10;0.10;;;;;;;;;;4975433;28;20038;-77
2023/03/18 11:58:51;;;;;;;0.20;0.20;;;;;;;;;;4983158;28;20133;-78
2023/03/18 12:01:40;;;;;;;0.10;0.10;;;;;;;;;;4984641;28;20730;-77
2023/03/18 12:04:28;;;;;;;0.20;0.20;;;;;;;;;;4981532;28;20041;-77
2023/03/18 12:07:30;;;;;;;0.17;0.17;;;;;;;;;;4988360;28;20077;-77
2023/03/18 12:10:19;;;;;;;0.13;0.13;;;;;;;;;;4987344;28;20034;-77
2023/03/18 12:13:18;;;;;;;0.20;0.20;;;;;;;;;;4987318;28;20042;-77
2023/03/18 12:16:11;;;;;;;0.10;0.10;;;;;;;;;;4988411;28;20034;-77
2023/03/18 12:18:57;;;;;;;0.10;0.10;;;;;;;;;;4983638;28;20034;-77
2023/03/18 12:21:55;;;;;;;0.10;0.10;;;;;;;;;;4979781;28;20037;-77
2023/03/18 12:24:40;;;;;;;0.00;0.00;;;;;;;;;;4983795;28;20549;-77
2023/03/18 12:27:31;;;;;;;0.10;0.10;;;;;;;;;;4984261;28;20034;-76
2023/03/18 12:30:35;;;;;;;0.10;0.10;;;;;;;;;;4987006;28;20042;-77
2023/03/18 12:33:25;;;;;;;0.13;0.13;;;;;;;;;;4982984;28;20037;-76
2023/03/18 12:36:21;;;;;;;0.10;0.10;;;;;;;;;;4983963;28;20045;-77
2023/03/18 12:39:07;;;;;;;0.10;0.10;;;;;;;;;;4987653;28;20039;-76
2023/03/18 12:42:06;;;;;;;0.10;0.10;;;;;;;;;;4985695;28;20045;-76
2023/03/18 12:45:02;;;;;;;0.10;0.10;;;;;;;;;;4981127;28;20141;-76
2023/03/18 12:47:49;;;;;;;0.10;0.10;;;;;;;;;;4983382;28;20057;-76
2023/03/18 12:50:35;;;;;;;0.10;0.10;;;;;;;;;;4986633;28;20487;-76
2023/03/18 12:53:28;;;;;;;0.10;0.10;;;;;;;;;;4988688;28;20107;-76
2023/03/18 12:56:20;;;;;;;0.20;0.20;;;;;;;;;;4983544;28;20038;-76
2023/03/18 12:59:08;;;;;;;0.10;0.10;;;;;;;;;;4980498;28;20037;-76
2023/03/18 13:02:09;;;;;;;0.20;0.20;;;;;;;;;;4982314;28;20053;-76
2023/03/18 13:04:58;;;;;;;0.20;0.20;;;;;;;;;;4985191;28;20407;-76
2023/03/18 13:07:58;;;;;;;0.10;0.10;;;;;;;;;;4981840;28;20394;-76
2023/03/18 13:10:46;;;;;;;0.10;0.10;;;;;;;;;;4985060;28;20440;-76
2023/03/18 13:13:33;;;;;;;0.10;0.10;;;;;;;;;;4981936;28;20057;-76
2023/03/18 13:16:20;;;;;;;0.10;0.10;;;;;;;;;;4987114;28;20656;-76
2023/03/18 13:19:07;;;;;;;0.10;0.10;;;;;;;;;;4988557;28;20363;-76
2023/03/18 13:22:05;;;;;;;0.20;0.20;;;;;;;;;;4987046;28;20073;-77
2023/03/18 13:24:56;;;;;;;0.20;0.20;;;;;;;;;;4989078;28;20037;-77
2023/03/18 13:28:00;;;;;;;0.10;0.10;;;;;;;;;;4991090;28;20034;-77
2023/03/18 13:30:55;;;;;;;0.10;0.10;;;;;;;;;;4987696;28;20029;-76
2023/03/18 13:33:59;;;;;;;0.10;0.10;;;;;;;;;;4990616;28;20797;-76
2023/03/18 13:36:45;;;;;;;0.10;0.10;;;;;;;;;;4953498;28;20445;-76
2023/03/18 13:39:37;;;;;;;0.10;0.10;;;;;;;;;;4989504;28;20078;-76
2023/03/18 13:42:24;;;;;;;0.10;0.10;;;;;;;;;;4991189;28;20068;-76
2023/03/18 13:45:17;;;;;;;0.10;0.10;;;;;;;;;;4984784;28;20030;-76
2023/03/18 13:48:04;;;;;;;0.10;0.10;;;;;;;;;;4987992;28;20058;-76
2023/03/18 13:50:50;;;;;;;0.10;0.10;;;;;;;;;;4983802;28;20100;-75
2023/03/18 13:53:41;;;;;;;0.10;0.10;;;;;;;;;;4986822;28;20034;-76
2023/03/18 13:56:39;;;;;;;0.10;0.10;;;;;;;;;;4987351;28;20172;-76
2023/03/18 13:59:33;;;;;;;0.10;0.10;;;;;;;;;;4984180;28;20683;-76
2023/03/18 14:02:41;;;;;;;0.10;0.10;;;;;;;;;;4989077;28;20054;-76
2023/03/18 14:05:32;;;;;;;0.10;0.10;;;;;;;;;;4985222;28;20031;-76
2023/03/18 14:08:37;;;;;;;0.10;0.10;;;;;;;;;;4988887;28;20037;-76
2023/03/18 14:11:22;;;;;;;0.15;0.10;;;;;;;;;;4982458;28;20430;-76
2023/03/18 14:14:31;;;;;;;0.10;0.10;;;;;;;;;;4988582;28;20125;-76
2023/03/18 14:17:31;;;;;;;0.10;0.10;;;;;;;;;;4978868;28;20034;-76
2023/03/18 14:20:17;;;;;;;0.05;0.05;;;;;;;;;;4985850;28;20030;-76
2023/03/18 14:23:21;;;;;;;0.10;0.10;;;;;;;;;;4987878;28;20375;-76
2023/03/18 14:26:07;;;;;;;0.10;0.10;;;;;;;;;;4976958;28;20034;-76
2023/03/18 14:29:14;;;;;;;0.17;0.17;;;;;;;;;;4991216;28;21812;-76
2023/03/18 14:32:06;;;;;;;0.10;0.10;;;;;;;;;;4984422;28;20407;-76
2023/03/18 14:34:59;;;;;;;0.10;0.10;;;;;;;;;;4986284;28;20030;-76
2023/03/18 14:37:55;;;;;;;0.20;0.20;;;;;;;;;;4984604;28;20493;-76
2023/03/18 14:40:42;;;;;;;0.10;0.10;;;;;;;;;;4983461;28;20045;-76
2023/03/18 14:43:49;;;;;;;0.10;0.10;;;;;;;;;;4984034;28;20026;-76
2023/03/18 14:46:39;;;;;;;0.10;0.10;;;;;;;;;;4986019;28;20120;-76
2023/03/18 14:49:37;;;;;;;0.10;0.10;;;;;;;;;;4984467;28;20061;-76
2023/03/18 14:52:29;;;;;;;0.13;0.13;;;;;;;;;;4986525;28;20495;-75
2023/03/18 14:55:19;;;;;;;0.10;0.10;;;;;;;;;;4987790;28;20338;-76
2023/03/18 14:58:05;;;;;;;0.20;0.20;;;;;;;;;;4984544;28;20066;-76
2023/03/18 15:00:53;;;;;;;0.20;0.20;;;;;;;;;;4980976;28;20636;-76
2023/03/18 15:03:41;;;;;;;0.10;0.10;;;;;;;;;;4982218;28;20256;-76
2023/03/18 15:06:28;;;;;;;0.10;0.10;;;;;;;;;;4984225;28;20065;-76
2023/03/18 15:09:23;;;;;;;0.13;0.13;;;;;;;;;;4984611;28;20092;-76
2023/03/18 15:12:15;;;;;;;0.10;0.10;;;;;;;;;;4984969;28;20766;-76
2023/03/18 15:15:02;;;;;;;0.15;0.15;;;;;;;;;;4986218;28;20037;-76
2023/03/18 15:17:48;;;;;;;0.10;0.10;;;;;;;;;;4985883;28;20370;-76
2023/03/18 15:20:35;;;;;;;0.10;0.10;;;;;;;;;;4983972;28;20604;-76
2023/03/18 15:23:25;;;;;;;0.10;0.10;;;;;;;;;;4988155;28;20038;-76
2023/03/18 15:26:17;;;;;;;0.10;0.10;;;;;;;;;;4980714;28;20045;-76
2023/03/18 15:29:23;;;;;;;0.10;0.10;;;;;;;;;;4985496;28;20039;-76
2023/03/18 15:32:17;;;;;;;0.10;0.10;;;;;;;;;;4985657;28;20791;-75
2023/03/18 15:35:06;;;;;;;0.10;0.10;;;;;;;;;;4985417;28;20116;-76
2023/03/18 15:38:04;;;;;;;0.10;0.10;;;;;;;;;;4957105;28;20112;-76
2023/03/18 15:40:51;;;;;;;0.15;0.15;;;;;;;;;;4981391;28;20042;-76
2023/03/18 15:43:44;;;;;;;0.20;0.20;;;;;;;;;;4985006;28;20113;-76
2023/03/18 15:46:31;;;;;;;0.20;0.20;;;;;;;;;;4983399;28;20542;-76
2023/03/18 15:49:16;;;;;;;0.15;0.15;;;;;;;;;;4982129;28;20612;-76
2023/03/18 15:52:06;;;;;;;0.10;0.10;;;;;;;;;;4982008;28;20081;-76
2023/03/18 15:54:52;;;;;;;0.10;0.10;;;;;;;;;;4979274;28;20041;-76
2023/03/18 15:57:38;;;;;;;0.10;0.10;;;;;;;;;;4984418;28;20746;-76
2023/03/18 16:00:24;;;;;;;0.10;0.10;;;;;;;;;;4983545;28;20041;-76
2023/03/18 16:03:23;;;;;;;0.10;0.10;;;;;;;;;;4983043;28;20038;-76
2023/03/18 16:06:09;;;;;;;0.10;0.10;;;;;;;;;;4983000;28;20029;-76
2023/03/18 16:08:55;;;;;;;0.10;0.10;;;;;;;;;;4984789;28;21048;-76
2023/03/18 16:11:41;;;;;;;0.10;0.10;;;;;;;;;;4983888;28;20132;-76
2023/03/18 16:14:34;;;;;;;0.10;0.10;;;;;;;;;;4983256;28;20041;-76
2023/03/18 16:17:20;;;;;;;0.10;0.10;;;;;;;;;;4983207;28;20299;-76
2023/03/18 16:20:13;;;;;;;0.10;0.10;;;;;;;;;;4987178;28;20041;-75
2023/03/18 16:22:59;;;;;;;0.10;0.10;;;;;;;;;;4984982;28;20040;-76
2023/03/18 16:25:46;;;;;;;0.10;0.10;;;;;;;;;;4976366;28;20117;-76
2023/03/18 16:28:32;;;;;;;0.10;0.10;;;;;;;;;;4985984;28;20038;-76
2023/03/18 16:31:18;;;;;;;0.10;0.10;;;;;;;;;;4981243;28;20586;-76
2023/03/18 16:34:05;;;;;;;0.10;0.10;;;;;;;;;;4983915;28;20077;-75
2023/03/18 16:36:52;;;;;;;0.15;0.15;;;;;;;;;;4957759;28;20042;-76
2023/03/18 16:39:38;;;;;;;0.10;0.10;;;;;;;;;;4978437;28;20068;-76
2023/03/18 16:42:24;;;;;;;0.10;0.10;;;;;;;;;;4981010;28;20048;-77
2023/03/18 16:45:12;;;;;;;0.10;0.10;;;;;;;;;;4987361;28;20083;-76
2023/03/18 16:48:00;;;;;;;0.10;0.10;;;;;;;;;;4972921;28;20788;-76
2023/03/18 16:50:48;;;;;;;0.10;0.10;;;;;;;;;;4984015;28;20034;-77
2023/03/18 16:53:34;;;;;;;0.10;0.10;;;;;;;;;;4983220;28;20037;-77
2023/03/18 16:56:22;;;;;;;0.10;0.10;;;;;;;;;;4983203;28;20091;-76